createdAt,value
2018-07-06T00:02:38.012Z,8.13
2018-07-06T00:05:17.107Z,7.97
2018-07-06T00:07:56.322Z,7.87
2018-07-06T00:10:35.869Z,8.03
2018-07-06T00:13:17.341Z,8.07
2018-07-06T00:15:56.596Z,7.97
2018-07-06T00:18:36.139Z,7.93
2018-07-06T00:21:15.293Z,8.23
2018-07-06T00:23:54.426Z,8.17
2018-07-06T00:26:34.262Z,8.67
2018-07-06T00:29:13.438Z,8.50
2018-07-06T00:31:52.910Z,8.23
2018-07-06T00:34:32.801Z,8.00
2018-07-06T00:37:06.289Z,8.17
2018-07-06T00:39:45.430Z,8.40
2018-07-06T00:42:19.868Z,8.30
2018-07-06T00:44:59.040Z,8.70
2018-07-06T00:47:38.043Z,8.17
2018-07-06T00:50:18.221Z,7.57
2018-07-06T00:52:57.332Z,8.40
2018-07-06T00:55:36.395Z,7.80
2018-07-06T00:58:15.705Z,7.50
2018-07-06T01:00:55.142Z,6.83
2018-07-06T01:03:34.317Z,6.27
2018-07-06T01:06:08.899Z,6.53
2018-07-06T01:08:48.028Z,5.73
2018-07-06T01:11:28.377Z,5.37
2018-07-06T01:14:10.512Z,5.70
2018-07-06T01:16:49.573Z,6.23
2018-07-06T01:19:28.946Z,5.60
2018-07-06T01:22:08.268Z,5.80
2018-07-06T01:24:48.480Z,6.90
2018-07-06T01:27:21.923Z,6.07
2018-07-06T01:30:01.386Z,5.77
2018-07-06T01:32:40.518Z,5.67
2018-07-06T01:35:19.718Z,5.30
2018-07-06T01:37:58.779Z,5.30
2018-07-06T01:40:38.078Z,5.13
2018-07-06T01:43:17.382Z,5.30
2018-07-06T01:45:56.740Z,4.57
2018-07-06T01:48:36.103Z,4.33
2018-07-06T01:51:09.790Z,4.40
2018-07-06T01:53:49.210Z,4.60
2018-07-06T01:56:28.485Z,4.20
2018-07-06T01:59:08.006Z,4.30
2018-07-06T02:01:47.218Z,4.27
2018-07-06T02:04:26.550Z,4.30
2018-07-06T02:07:05.872Z,3.80
2018-07-06T02:09:45.389Z,4.60
2018-07-06T02:12:24.494Z,4.50
2018-07-06T02:15:03.578Z,4.30
2018-07-06T02:17:42.697Z,4.37
2018-07-06T02:20:22.214Z,4.50
2018-07-06T02:23:02.432Z,4.93
2018-07-06T02:25:41.516Z,4.30
2018-07-06T02:28:20.585Z,4.03
2018-07-06T02:31:00.047Z,3.57
2018-07-06T02:33:39.229Z,3.70
2018-07-06T02:36:18.511Z,3.70
2018-07-06T02:39:01.820Z,3.37
2018-07-06T02:41:40.779Z,3.33
2018-07-06T02:44:20.018Z,3.50
2018-07-06T02:46:59.517Z,3.60
2018-07-06T02:49:33.371Z,3.27
2018-07-06T02:52:12.322Z,3.40
2018-07-06T02:54:51.591Z,3.53
2018-07-06T02:57:30.775Z,3.27
2018-07-06T03:00:13.289Z,3.10
2018-07-06T03:02:52.546Z,3.20
2018-07-06T03:05:32.203Z,3.10
2018-07-06T03:08:11.604Z,3.47
2018-07-06T03:10:51.229Z,3.13
2018-07-06T03:13:30.445Z,3.40
2018-07-06T03:16:10.249Z,3.43
2018-07-06T03:18:51.442Z,3.30
2018-07-06T03:21:30.730Z,3.13
2018-07-06T03:24:11.241Z,3.63
2018-07-06T03:26:50.531Z,3.87
2018-07-06T03:29:30.090Z,3.40
2018-07-06T03:32:09.295Z,3.27
2018-07-06T03:34:48.947Z,3.47
2018-07-06T03:37:28.337Z,3.50
2018-07-06T03:40:07.721Z,3.50
2018-07-06T03:42:47.443Z,3.57
2018-07-06T03:45:26.465Z,3.50
2018-07-06T03:48:05.837Z,3.33
2018-07-06T03:50:44.957Z,3.53
2018-07-06T03:53:25.405Z,3.47
2018-07-06T03:56:05.814Z,3.70
2018-07-06T03:58:44.912Z,3.57
2018-07-06T04:01:24.097Z,3.20
2018-07-06T04:04:03.322Z,3.60
2018-07-06T04:06:42.583Z,3.40
2018-07-06T04:09:16.130Z,3.57
2018-07-06T04:11:55.237Z,3.40
2018-07-06T04:14:34.398Z,3.47
2018-07-06T04:17:13.842Z,3.27
2018-07-06T04:19:53.773Z,3.43
2018-07-06T04:22:34.649Z,3.30
2018-07-06T04:25:13.739Z,3.60
2018-07-06T04:27:53.777Z,3.50
2018-07-06T04:30:32.983Z,3.50
2018-07-06T04:33:12.080Z,3.17
2018-07-06T04:35:51.416Z,3.57
2018-07-06T04:38:30.608Z,3.30
2018-07-06T04:41:10.678Z,3.50
2018-07-06T04:43:50.227Z,3.63
2018-07-06T04:46:31.604Z,3.60
2018-07-06T04:49:10.941Z,3.60
2018-07-06T04:51:50.330Z,4.07
2018-07-06T04:54:29.654Z,3.73
2018-07-06T04:57:08.846Z,3.47
2018-07-06T04:59:48.151Z,3.87
2018-07-06T05:02:27.258Z,3.90
2018-07-06T05:05:06.617Z,3.83
2018-07-06T05:07:39.943Z,3.60
2018-07-06T05:10:19.444Z,3.57
2018-07-06T05:12:58.977Z,3.70
2018-07-06T05:15:38.069Z,3.63
2018-07-06T05:18:17.974Z,3.67
2018-07-06T05:20:57.054Z,3.83
2018-07-06T05:23:36.582Z,4.10
2018-07-06T05:26:15.723Z,3.87
2018-07-06T05:28:56.615Z,3.87
2018-07-06T05:31:36.165Z,3.87
2018-07-06T05:34:15.354Z,3.80
2018-07-06T05:36:54.487Z,3.80
2018-07-06T05:39:34.455Z,4.10
2018-07-06T05:42:14.511Z,3.77
2018-07-06T05:44:54.119Z,3.60
2018-07-06T05:47:34.320Z,3.20
2018-07-06T05:50:14.586Z,3.20
2018-07-06T05:52:55.280Z,3.10
2018-07-06T05:55:34.458Z,3.37
2018-07-06T05:58:13.952Z,3.27
2018-07-06T06:00:53.281Z,3.40
2018-07-06T06:03:33.671Z,3.07
2018-07-06T06:06:13.234Z,3.10
2018-07-06T06:08:40.632Z,3.37
2018-07-06T06:11:08.686Z,2.90
2018-07-06T06:13:36.750Z,3.00
2018-07-06T06:16:04.636Z,3.33
2018-07-06T06:18:32.857Z,2.90
2018-07-06T06:21:00.858Z,3.27
2018-07-06T06:23:31.370Z,2.90
2018-07-06T06:25:59.389Z,2.80
2018-07-06T06:28:27.602Z,3.03
2018-07-06T06:30:55.813Z,3.20
2018-07-06T06:33:24.247Z,2.50
2018-07-06T06:35:53.382Z,2.87
2018-07-06T06:38:21.630Z,2.77
2018-07-06T06:40:50.089Z,2.97
2018-07-06T06:43:19.250Z,2.40
2018-07-06T06:45:48.770Z,2.43
2018-07-06T06:48:17.340Z,2.50
2018-07-06T06:50:45.885Z,2.43
2018-07-06T06:53:13.969Z,2.50
2018-07-06T06:55:43.226Z,2.67
2018-07-06T06:58:12.095Z,2.20
2018-07-06T07:00:43.206Z,2.60
2018-07-06T07:03:12.839Z,2.20
2018-07-06T07:05:41.811Z,2.03
2018-07-06T07:08:10.929Z,1.90
2018-07-06T07:10:39.250Z,2.30
2018-07-06T07:13:07.278Z,2.20
2018-07-06T07:15:36.373Z,2.20
2018-07-06T07:18:04.594Z,2.30
2018-07-06T07:20:33.258Z,2.30
2018-07-06T07:23:01.959Z,2.73
2018-07-06T07:25:30.233Z,2.43
2018-07-06T07:27:58.953Z,2.70
2018-07-06T07:30:29.086Z,2.80
2018-07-06T07:32:58.339Z,2.40
2018-07-06T07:35:26.798Z,2.50
2018-07-06T07:37:55.105Z,2.27
2018-07-06T07:40:23.259Z,2.50
2018-07-06T07:42:51.532Z,2.30
2018-07-06T07:45:20.142Z,2.40
2018-07-06T07:47:49.065Z,2.20
2018-07-06T07:50:17.308Z,2.07
2018-07-06T07:54:59.363Z,2.57
2018-07-06T07:57:27.468Z,2.47
2018-07-06T07:59:56.421Z,2.60
2018-07-06T08:02:26.291Z,2.20
2018-07-06T08:04:54.723Z,2.60
2018-07-06T08:07:24.602Z,2.50
2018-07-06T08:09:55.635Z,2.50
2018-07-06T08:12:23.856Z,2.20
2018-07-06T08:14:53.300Z,2.67
2018-07-06T08:17:21.882Z,2.40
2018-07-06T08:19:50.186Z,2.10
2018-07-06T08:22:19.552Z,2.13
2018-07-06T08:24:47.715Z,2.67
2018-07-06T08:27:17.229Z,2.77
2018-07-06T08:29:45.778Z,2.53
2018-07-06T08:32:16.217Z,2.30
2018-07-06T08:34:56.462Z,2.83
2018-07-06T08:37:41.233Z,2.80
2018-07-06T08:40:11.349Z,2.70
2018-07-06T08:42:40.752Z,2.73
2018-07-06T08:45:09.469Z,2.23
2018-07-06T08:47:37.853Z,2.50
2018-07-06T08:50:06.439Z,2.40
2018-07-06T08:52:35.369Z,2.30
2018-07-06T08:55:04.261Z,2.70
2018-07-06T08:57:33.015Z,2.40
2018-07-06T09:00:01.351Z,2.17
2018-07-06T09:02:30.307Z,2.27
2018-07-06T09:05:04.429Z,2.20
2018-07-06T09:07:32.634Z,2.40
2018-07-06T09:10:01.226Z,2.67
2018-07-06T09:12:30.770Z,2.40
2018-07-06T09:15:00.280Z,2.47
2018-07-06T09:17:30.343Z,2.00
2018-07-06T09:20:00.488Z,2.37
2018-07-06T09:22:28.646Z,2.03
2018-07-06T09:24:58.231Z,2.30
2018-07-06T09:27:26.386Z,2.20
2018-07-06T09:29:55.548Z,2.50
2018-07-06T09:32:23.683Z,2.20
2018-07-06T09:34:51.866Z,2.33
2018-07-06T09:37:19.870Z,2.33
2018-07-06T09:39:51.005Z,2.30
2018-07-06T09:42:19.297Z,2.23
2018-07-06T09:44:47.422Z,2.17
2018-07-06T09:47:15.712Z,2.00
2018-07-06T09:49:48.514Z,2.10
2018-07-06T09:52:16.545Z,1.90
2018-07-06T09:54:44.788Z,1.80
2018-07-06T09:57:13.339Z,1.80
2018-07-06T09:59:41.378Z,1.70
2018-07-06T10:02:09.437Z,1.70
2018-07-06T10:04:37.509Z,1.50
2018-07-06T10:07:08.336Z,1.80
2018-07-06T10:09:36.731Z,1.80
2018-07-06T10:12:05.210Z,1.70
2018-07-06T10:14:33.328Z,1.70
2018-07-06T10:17:01.977Z,1.70
2018-07-06T10:19:30.405Z,1.80
2018-07-06T10:21:58.753Z,1.80
2018-07-06T10:24:27.071Z,1.80
2018-07-06T10:26:55.749Z,1.90
2018-07-06T10:30:33.730Z,2.10
2018-07-06T10:33:03.876Z,2.40
2018-07-06T10:35:35.560Z,2.20
2018-07-06T10:38:03.793Z,2.30
2018-07-06T10:43:07.360Z,2.70
2018-07-06T10:45:35.749Z,2.60
2018-07-06T10:48:04.331Z,2.30
2018-07-06T10:50:32.277Z,2.80
2018-07-06T10:53:00.611Z,2.30
2018-07-06T10:55:29.247Z,2.80
2018-07-06T10:57:58.351Z,2.50
2018-07-06T11:00:26.507Z,2.40
2018-07-06T11:02:55.012Z,2.30
2018-07-06T11:05:23.519Z,2.90
2018-07-06T11:07:52.010Z,2.70
2018-07-06T11:10:20.248Z,3.00
2018-07-06T11:12:48.468Z,3.23
2018-07-06T11:15:17.258Z,3.30
2018-07-06T11:17:46.807Z,3.10
2018-07-06T11:20:14.961Z,2.83
2018-07-06T11:22:42.974Z,2.97
2018-07-06T11:25:11.322Z,2.80
2018-07-06T11:27:40.038Z,3.07
2018-07-06T11:30:09.619Z,3.00
2018-07-06T11:32:39.022Z,2.70
2018-07-06T11:35:07.787Z,3.07
2018-07-06T11:37:38.044Z,2.50
2018-07-06T11:40:07.338Z,2.80
2018-07-06T11:42:35.563Z,2.67
2018-07-06T11:45:05.317Z,3.00
2018-07-06T11:47:33.762Z,2.60
2018-07-06T11:50:03.131Z,2.90
2018-07-06T11:52:31.270Z,2.83
2018-07-06T11:54:59.732Z,2.63
2018-07-06T11:57:28.014Z,2.80
2018-07-06T11:59:56.289Z,2.97
2018-07-06T12:02:25.729Z,3.77
2018-07-06T12:04:54.023Z,3.30
2018-07-06T12:07:22.448Z,3.07
2018-07-06T12:09:50.649Z,3.23
2018-07-06T12:12:20.707Z,3.43
2018-07-06T12:14:49.026Z,3.43
2018-07-06T12:17:17.618Z,3.30
2018-07-06T12:19:49.793Z,3.40
2018-07-06T12:22:17.973Z,3.50
2018-07-06T12:24:46.128Z,3.50
2018-07-06T12:27:14.339Z,3.50
2018-07-06T12:29:42.566Z,4.17
2018-07-06T12:32:10.555Z,4.37
2018-07-06T12:34:38.614Z,3.63
2018-07-06T12:37:06.916Z,3.73
2018-07-06T12:39:35.000Z,4.03
2018-07-06T12:42:03.363Z,3.10
2018-07-06T12:44:32.558Z,3.30
2018-07-06T12:47:00.805Z,3.90
2018-07-06T12:49:29.366Z,3.87
2018-07-06T12:51:57.669Z,4.00
2018-07-06T12:54:25.893Z,3.40
2018-07-06T12:56:54.014Z,3.60
2018-07-06T12:59:22.529Z,3.30
2018-07-06T13:01:50.586Z,3.43
2018-07-06T13:04:19.103Z,3.23
2018-07-06T13:06:48.614Z,3.60
2018-07-06T13:09:17.037Z,4.00
2018-07-06T13:11:45.338Z,4.40
2018-07-06T13:14:14.224Z,4.07
2018-07-06T13:16:42.664Z,3.50
2018-07-06T13:19:12.707Z,3.47
2018-07-06T13:21:44.262Z,3.83
2018-07-06T13:24:13.562Z,4.07
2018-07-06T13:26:41.697Z,3.97
2018-07-06T13:29:10.301Z,3.93
2018-07-06T13:31:38.481Z,3.60
2018-07-06T13:34:06.682Z,4.03
2018-07-06T13:36:34.765Z,4.13
2018-07-06T13:39:03.957Z,3.40
2018-07-06T13:41:33.937Z,3.27
2018-07-06T13:44:03.281Z,3.37
2018-07-06T13:46:32.343Z,3.40
2018-07-06T13:49:01.572Z,3.93
2018-07-06T13:51:31.103Z,3.63
2018-07-06T13:54:02.357Z,3.93
2018-07-06T13:56:31.554Z,3.60
2018-07-06T13:58:59.893Z,3.90
2018-07-06T14:01:29.084Z,3.70
2018-07-06T14:03:57.339Z,3.53
2018-07-06T14:06:25.654Z,3.73
2018-07-06T14:08:54.402Z,3.53
2018-07-06T14:11:25.345Z,3.10
2018-07-06T14:13:54.234Z,3.20
2018-07-06T14:16:23.769Z,3.43
2018-07-06T14:18:51.862Z,3.60
2018-07-06T14:21:20.426Z,3.20
2018-07-06T14:23:58.653Z,3.60
2018-07-06T14:26:28.570Z,3.40
2018-07-06T14:28:56.873Z,3.10
2018-07-06T14:31:25.604Z,3.47
2018-07-06T14:33:53.855Z,3.00
2018-07-06T14:36:22.290Z,3.50
2018-07-06T14:38:51.714Z,3.47
2018-07-06T14:41:20.266Z,3.00
2018-07-06T14:43:48.386Z,3.23
2018-07-06T14:46:16.603Z,3.00
2018-07-06T14:48:44.899Z,2.83
2018-07-06T14:51:13.880Z,3.20
2018-07-06T14:53:41.966Z,3.37
2018-07-06T14:56:10.021Z,3.23
2018-07-06T14:58:38.279Z,2.83
2018-07-06T15:01:06.515Z,2.97
2018-07-06T15:03:34.857Z,3.03
2018-07-06T15:06:03.368Z,3.30
2018-07-06T15:08:32.677Z,3.10
2018-07-06T15:11:01.668Z,3.20
2018-07-06T15:13:29.958Z,3.30
2018-07-06T15:15:58.696Z,3.10
2018-07-06T15:18:27.342Z,3.50
2018-07-06T15:20:55.964Z,3.13
2018-07-06T15:23:24.753Z,2.80
2018-07-06T15:25:52.859Z,2.87
2018-07-06T15:28:20.998Z,2.60
2018-07-06T15:30:49.463Z,2.80
2018-07-06T15:33:18.595Z,3.00
2018-07-06T15:35:51.880Z,7.90
2018-07-06T15:38:20.348Z,2.57
2018-07-06T15:40:48.955Z,2.50
2018-07-06T15:43:17.332Z,2.70
2018-07-06T15:45:46.030Z,2.70
2018-07-06T15:48:14.614Z,2.70
2018-07-06T15:50:44.019Z,2.53
2018-07-06T15:53:12.451Z,3.07
2018-07-06T15:55:40.618Z,2.57
2018-07-06T15:58:09.343Z,2.50
2018-07-06T16:00:38.021Z,2.93
2018-07-06T16:03:06.534Z,2.30
2018-07-06T16:05:35.307Z,2.70
2018-07-06T16:08:04.471Z,2.77
2018-07-06T16:10:32.911Z,2.67
2018-07-06T16:13:02.268Z,2.50
2018-07-06T16:15:30.299Z,2.83
2018-07-06T16:18:01.125Z,2.67
2018-07-06T16:20:30.395Z,2.80
2018-07-06T16:22:58.850Z,2.50
2018-07-06T16:25:27.717Z,2.77
2018-07-06T16:27:56.217Z,3.00
2018-07-06T16:30:24.386Z,3.00
2018-07-06T16:32:53.777Z,2.53
2018-07-06T16:35:21.868Z,2.87
2018-07-06T16:37:52.629Z,2.70
2018-07-06T16:40:22.012Z,2.70
2018-07-06T16:42:52.435Z,2.57
2018-07-06T16:45:22.765Z,2.70
2018-07-06T16:47:50.919Z,2.70
2018-07-06T16:50:24.965Z,2.60
2018-07-06T16:52:54.466Z,2.80
2018-07-06T16:55:26.000Z,2.60
2018-07-06T16:57:54.353Z,2.47
2018-07-06T17:00:25.107Z,2.50
2018-07-06T17:02:58.099Z,2.80
2018-07-06T17:05:28.654Z,2.70
2018-07-06T17:07:57.028Z,2.67
2018-07-06T17:10:25.674Z,2.80
2018-07-06T17:12:53.913Z,2.70
2018-07-06T17:15:22.855Z,2.57
2018-07-06T17:17:51.729Z,2.70
2018-07-06T17:20:19.774Z,2.50
2018-07-06T17:22:49.911Z,2.47
2018-07-06T17:25:18.323Z,2.30
2018-07-06T17:27:57.407Z,2.40
2018-07-06T17:30:28.676Z,2.50
2018-07-06T17:33:01.753Z,2.57
2018-07-06T17:35:29.914Z,2.27
2018-07-06T17:37:58.244Z,2.70
2018-07-06T17:40:28.334Z,2.47
2018-07-06T17:42:56.690Z,3.93
2018-07-06T17:45:28.237Z,5.33
2018-07-06T17:47:57.337Z,2.27
2018-07-06T17:50:25.784Z,2.50
2018-07-06T17:52:55.048Z,2.33
2018-07-06T17:55:23.247Z,2.40
2018-07-06T17:57:51.684Z,2.47
2018-07-06T18:00:20.678Z,2.10
2018-07-06T18:02:54.807Z,2.10
2018-07-06T18:05:24.329Z,2.40
2018-07-06T18:07:52.682Z,2.60
2018-07-06T18:10:20.775Z,1.93
2018-07-06T18:12:49.246Z,2.23
2018-07-06T18:15:17.481Z,2.20
2018-07-06T18:17:47.595Z,2.00
2018-07-06T18:20:16.049Z,2.20
2018-07-06T18:22:44.609Z,2.50
2018-07-06T18:25:12.732Z,2.30
2018-07-06T18:27:41.213Z,2.10
2018-07-06T18:30:09.730Z,2.13
2018-07-06T18:32:38.624Z,2.27
2018-07-06T18:35:08.091Z,2.10
2018-07-06T18:37:36.793Z,2.20
2018-07-06T18:40:05.277Z,2.17
2018-07-06T18:42:33.680Z,1.90
2018-07-06T18:45:02.681Z,2.13
2018-07-06T18:47:30.831Z,2.30
2018-07-06T18:52:35.069Z,2.03
2018-07-06T18:55:03.737Z,2.20
2018-07-06T18:57:32.951Z,2.17
2018-07-06T19:00:01.860Z,1.90
2018-07-06T19:02:31.416Z,2.50
2018-07-06T19:05:00.693Z,2.13
2018-07-06T19:07:30.516Z,2.10
2018-07-06T19:10:02.870Z,2.00
2018-07-06T19:12:31.230Z,2.07
2018-07-06T19:15:03.107Z,2.00
2018-07-06T19:17:33.418Z,2.20
2018-07-06T19:20:03.098Z,2.30
2018-07-06T19:22:32.536Z,2.30
2018-07-06T19:25:02.106Z,2.30
2018-07-06T19:27:31.435Z,2.30
2018-07-06T19:30:03.244Z,2.50
2018-07-06T19:32:33.610Z,2.47
2018-07-06T19:35:05.624Z,2.17
2018-07-06T19:37:34.234Z,2.20
2018-07-06T19:40:02.560Z,2.27
2018-07-06T19:42:31.082Z,2.40
2018-07-06T19:45:00.685Z,2.13
2018-07-06T19:47:28.838Z,2.33
2018-07-06T19:50:00.225Z,1.90
2018-07-06T19:52:28.413Z,2.20
2018-07-06T19:54:57.965Z,2.10
2018-07-06T19:57:26.282Z,2.10
2018-07-06T19:59:54.941Z,2.10
2018-07-06T20:02:24.603Z,2.13
2018-07-06T20:04:53.241Z,2.20
2018-07-06T20:07:24.000Z,2.17
2018-07-06T20:09:53.170Z,2.27
2018-07-06T20:12:22.748Z,2.20
2018-07-06T20:14:51.626Z,2.17
2018-07-06T20:17:21.194Z,2.10
2018-07-06T20:19:51.289Z,2.33
2018-07-06T20:22:20.085Z,2.70
2018-07-06T20:24:48.475Z,2.20
2018-07-06T20:27:20.413Z,2.50
2018-07-06T20:30:00.618Z,2.10
2018-07-06T20:32:32.314Z,2.30
2018-07-06T20:35:01.853Z,2.30
2018-07-06T20:37:31.260Z,2.40
2018-07-06T20:40:03.228Z,2.27
2018-07-06T20:42:32.810Z,2.00
2018-07-06T20:45:02.650Z,17.67
2018-07-06T20:47:33.962Z,3.50
2018-07-06T20:50:03.062Z,2.10
2018-07-06T20:52:37.213Z,2.17
2018-07-06T20:55:10.769Z,2.27
2018-07-06T20:57:39.246Z,2.30
2018-07-06T21:00:09.214Z,2.10
2018-07-06T21:02:38.619Z,2.20
2018-07-06T21:05:08.173Z,2.07
2018-07-06T21:07:36.744Z,2.20
2018-07-06T21:10:05.569Z,2.13
2018-07-06T21:12:35.498Z,2.10
2018-07-06T21:15:03.861Z,2.07
2018-07-06T21:17:38.872Z,4.93
2018-07-06T21:20:11.387Z,2.20
2018-07-06T21:22:45.937Z,2.20
2018-07-06T21:25:24.331Z,2.00
2018-07-06T21:27:55.223Z,2.00
2018-07-06T21:30:26.222Z,2.23
2018-07-06T21:33:01.315Z,2.23
2018-07-06T21:35:33.737Z,2.50
2018-07-06T21:38:05.178Z,2.20
2018-07-06T21:44:30.880Z,2.10
2018-07-06T21:47:01.463Z,2.00
2018-07-06T21:49:32.094Z,2.00
2018-07-06T21:52:02.908Z,2.20
2018-07-06T21:54:31.842Z,1.87
2018-07-06T21:57:00.637Z,2.13
2018-07-06T21:59:31.991Z,2.40
2018-07-06T22:02:07.529Z,2.10
2018-07-06T22:04:37.087Z,2.10
2018-07-06T22:07:07.551Z,2.10
2018-07-06T22:09:36.558Z,1.90
2018-07-06T22:12:08.177Z,1.83
2018-07-06T22:14:38.565Z,1.80
2018-07-06T22:17:08.291Z,2.07
2018-07-06T22:19:36.717Z,2.00
2018-07-06T22:22:05.601Z,2.10
2018-07-06T22:24:38.423Z,2.07
2018-07-06T22:27:07.926Z,1.70
2018-07-06T22:29:38.291Z,1.80
2018-07-06T22:32:09.010Z,1.97
2018-07-06T22:34:40.603Z,2.80
2018-07-06T22:37:08.756Z,2.00
2018-07-06T22:39:37.807Z,1.80
2018-07-06T22:42:05.732Z,1.90
2018-07-06T22:44:33.875Z,1.90
2018-07-06T22:47:02.219Z,1.83
2018-07-06T22:49:30.973Z,2.53
2018-07-06T22:51:59.762Z,2.37
2018-07-06T22:54:28.358Z,2.40
2018-07-06T22:56:57.087Z,2.50
2018-07-06T22:59:25.773Z,2.40
2018-07-06T23:01:54.418Z,2.17
2018-07-06T23:04:26.205Z,2.10
2018-07-06T23:06:54.841Z,2.30
2018-07-06T23:09:24.051Z,2.30
2018-07-06T23:11:52.902Z,2.27
2018-07-06T23:14:21.466Z,2.77
2018-07-06T23:16:50.663Z,2.70
2018-07-06T23:19:19.882Z,2.10
2018-07-06T23:21:48.253Z,2.00
2018-07-06T23:24:16.961Z,2.20
2018-07-06T23:26:45.203Z,2.63
2018-07-06T23:29:14.006Z,2.53
2018-07-06T23:31:42.597Z,1.80
2018-07-06T23:34:10.774Z,2.40
2018-07-06T23:36:38.823Z,2.37
2018-07-06T23:39:06.982Z,2.47
2018-07-06T23:41:35.056Z,2.93
2018-07-06T23:44:04.513Z,2.57
2018-07-06T23:46:33.150Z,2.50
2018-07-06T23:49:01.156Z,2.80
2018-07-06T23:51:30.369Z,2.40
2018-07-06T23:53:58.442Z,2.43
2018-07-06T23:56:26.645Z,2.70
2018-07-06T23:58:55.097Z,2.70
